< Typhoon 197202 1972 Season Typhoon 197204 >
Typhoon 197203 (MAMIE)
General InformationTrack Information on Google Maps || Disaster Info.ResourceGoogle EarthGE AnimationAtom FeedGeoJSON
Detalied Best Track (Time Zone = UTC)
Year Month Day Hour Lat. Long. Pressure (hPa) Wind (kt) Class Image Chart
1972 6 1 06 12.8 112.1 1006 0 2 -- Chart
1972 6 1 12 13.4 112.0 1006 0 2 -- Chart
1972 6 1 18 14.1 111.7 1006 0 2 -- Chart
1972 6 2 00 14.6 111.3 1004 0 2 -- Chart
1972 6 2 06 15.0 110.7 998 0 9 -- Chart
1972 6 2 12 15.4 109.9 994 0 9 -- Chart
1972 6 2 18 15.7 108.7 990 0 9 -- Chart
1972 6 3 00 15.8 107.7 996 0 9 -- Chart
1972 6 3 06 16.0 107.0 1000 0 2 -- Chart
1972 6 3 12 16.3 106.6 1000 0 2 -- Chart
1972 6 3 18 16.8 106.3 1000 0 2 -- Chart
1972 6 4 00 17.0 106.5 1000 0 2 -- Chart
1972 6 4 06 17.2 106.9 1000 0 2 -- Chart
1972 6 4 12 17.7 108.1 998 0 6 -- Chart
1972 6 4 18 18.4 110.0 998 0 6 -- Chart
1972 6 5 00 19.8 111.7 998 0 6 -- Chart
1972 6 5 06 20.4 113.0 998 0 6 -- Chart
1972 6 5 12 21.0 114.2 998 0 6 -- Chart
1972 6 5 18 21.4 115.6 998 0 6 -- Chart
1972 6 6 00 21.7 117.5 998 0 6 -- Chart
1972 6 6 06 22.1 119.0 998 0 6 -- Chart
1972 6 6 12 23.0 120.9 998 0 6 -- Chart
1972 6 6 18 24.0 123.0 998 0 6 -- Chart
1972 6 7 00 25.0 125.0 998 0 6 -- Chart
Japan Meteorological Agency Best Track Data | Correction Date : 1989-06-01
< Typhoon 197202 1972 Season Typhoon 197204 >

Help